sensor_id;sensor_type;location;lat;lon;timestamp;P1;durP1;ratioP1;P2;durP2;ratioP2
26750;SDS011;14345;48.272;25.926;2023-08-17T00:02:21;12.15;;;8.02;;
26750;SDS011;14345;48.272;25.926;2023-08-17T00:04:47;10.13;;;7.72;;
26750;SDS011;14345;48.272;25.926;2023-08-17T00:07:13;12.13;;;7.90;;
26750;SDS011;14345;48.272;25.926;2023-08-17T00:09:39;12.10;;;7.65;;
26750;SDS011;14345;48.272;25.926;2023-08-17T00:12:05;13.38;;;8.57;;
26750;SDS011;14345;48.272;25.926;2023-08-17T00:14:31;11.73;;;8.00;;
26750;SDS011;14345;48.272;25.926;2023-08-17T00:16:57;10.07;;;7.95;;
26750;SDS011;14345;48.272;25.926;2023-08-17T00:19:23;10.43;;;7.78;;
26750;SDS011;14345;48.272;25.926;2023-08-17T00:21:50;8.45;;;7.00;;
26750;SDS011;14345;48.272;25.926;2023-08-17T00:24:17;13.05;;;7.57;;
26750;SDS011;14345;48.272;25.926;2023-08-17T00:26:43;10.40;;;7.70;;
26750;SDS011;14345;48.272;25.926;2023-08-17T00:29:09;10.75;;;8.02;;
26750;SDS011;14345;48.272;25.926;2023-08-17T00:31:35;10.65;;;7.38;;
26750;SDS011;14345;48.272;25.926;2023-08-17T00:34:01;12.18;;;8.15;;
26750;SDS011;14345;48.272;25.926;2023-08-17T00:36:27;10.18;;;7.38;;
26750;SDS011;14345;48.272;25.926;2023-08-17T00:38:53;10.73;;;7.00;;
26750;SDS011;14345;48.272;25.926;2023-08-17T00:41:19;10.77;;;6.97;;
26750;SDS011;14345;48.272;25.926;2023-08-17T00:43:45;9.05;;;6.93;;
26750;SDS011;14345;48.272;25.926;2023-08-17T00:46:11;11.68;;;6.63;;
26750;SDS011;14345;48.272;25.926;2023-08-17T00:48:37;8.55;;;6.57;;
26750;SDS011;14345;48.272;25.926;2023-08-17T00:51:03;10.20;;;7.03;;
26750;SDS011;14345;48.272;25.926;2023-08-17T00:53:30;10.68;;;7.35;;
26750;SDS011;14345;48.272;25.926;2023-08-17T00:55:57;10.48;;;7.00;;
26750;SDS011;14345;48.272;25.926;2023-08-17T00:58:23;7.78;;;6.70;;
26750;SDS011;14345;48.272;25.926;2023-08-17T01:00:50;10.77;;;7.53;;
26750;SDS011;14345;48.272;25.926;2023-08-17T01:03:16;9.88;;;7.38;;
26750;SDS011;14345;48.272;25.926;2023-08-17T01:05:43;10.43;;;7.32;;
26750;SDS011;14345;48.272;25.926;2023-08-17T01:08:09;10.75;;;7.75;;
26750;SDS011;14345;48.272;25.926;2023-08-17T01:10:41;10.02;;;7.38;;
26750;SDS011;14345;48.272;25.926;2023-08-17T01:13:13;11.85;;;7.43;;
26750;SDS011;14345;48.272;25.926;2023-08-17T01:15:42;12.23;;;7.68;;
26750;SDS011;14345;48.272;25.926;2023-08-17T01:18:15;9.63;;;7.18;;
26750;SDS011;14345;48.272;25.926;2023-08-17T01:20:43;13.50;;;7.88;;
26750;SDS011;14345;48.272;25.926;2023-08-17T01:23:09;9.88;;;7.93;;
26750;SDS011;14345;48.272;25.926;2023-08-17T01:25:35;10.07;;;7.60;;
26750;SDS011;14345;48.272;25.926;2023-08-17T01:28:04;13.45;;;7.60;;
26750;SDS011;14345;48.272;25.926;2023-08-17T01:30:30;10.93;;;7.55;;
26750;SDS011;14345;48.272;25.926;2023-08-17T01:35:28;11.55;;;7.60;;
26750;SDS011;14345;48.272;25.926;2023-08-17T01:38:00;11.20;;;7.97;;
26750;SDS011;14345;48.272;25.926;2023-08-17T01:40:31;9.93;;;7.35;;
26750;SDS011;14345;48.272;25.926;2023-08-17T01:42:58;9.90;;;7.20;;
26750;SDS011;14345;48.272;25.926;2023-08-17T01:45:24;11.15;;;7.75;;
26750;SDS011;14345;48.272;25.926;2023-08-17T01:47:51;10.60;;;7.10;;
26750;SDS011;14345;48.272;25.926;2023-08-17T01:50:17;8.98;;;6.80;;
26750;SDS011;14345;48.272;25.926;2023-08-17T01:52:43;9.20;;;6.78;;
26750;SDS011;14345;48.272;25.926;2023-08-17T01:55:09;9.80;;;7.13;;
26750;SDS011;14345;48.272;25.926;2023-08-17T01:57:35;12.35;;;7.10;;
26750;SDS011;14345;48.272;25.926;2023-08-17T02:00:02;9.38;;;7.15;;
26750;SDS011;14345;48.272;25.926;2023-08-17T02:02:29;9.70;;;6.93;;
26750;SDS011;14345;48.272;25.926;2023-08-17T02:04:55;8.90;;;6.82;;
26750;SDS011;14345;48.272;25.926;2023-08-17T02:07:21;9.00;;;6.50;;
26750;SDS011;14345;48.272;25.926;2023-08-17T02:09:47;11.15;;;7.03;;
26750;SDS011;14345;48.272;25.926;2023-08-17T02:12:13;8.85;;;6.82;;
26750;SDS011;14345;48.272;25.926;2023-08-17T02:14:39;11.57;;;7.10;;
26750;SDS011;14345;48.272;25.926;2023-08-17T02:17:05;9.48;;;6.85;;
26750;SDS011;14345;48.272;25.926;2023-08-17T02:19:33;11.57;;;7.18;;
26750;SDS011;14345;48.272;25.926;2023-08-17T02:21:59;12.52;;;7.18;;
26750;SDS011;14345;48.272;25.926;2023-08-17T02:24:25;9.75;;;7.15;;
26750;SDS011;14345;48.272;25.926;2023-08-17T02:26:51;11.65;;;6.43;;
26750;SDS011;14345;48.272;25.926;2023-08-17T02:29:17;9.20;;;7.05;;
26750;SDS011;14345;48.272;25.926;2023-08-17T02:31:43;8.43;;;6.90;;
26750;SDS011;14345;48.272;25.926;2023-08-17T02:34:09;12.02;;;7.30;;
26750;SDS011;14345;48.272;25.926;2023-08-17T02:36:35;10.07;;;7.35;;
26750;SDS011;14345;48.272;25.926;2023-08-17T02:39:01;9.57;;;7.13;;
26750;SDS011;14345;48.272;25.926;2023-08-17T02:41:28;11.15;;;7.47;;
26750;SDS011;14345;48.272;25.926;2023-08-17T02:43:55;13.52;;;7.55;;
26750;SDS011;14345;48.272;25.926;2023-08-17T02:46:21;9.88;;;6.97;;
26750;SDS011;14345;48.272;25.926;2023-08-17T02:48:47;8.32;;;6.25;;
26750;SDS011;14345;48.272;25.926;2023-08-17T02:51:14;9.88;;;6.32;;
26750;SDS011;14345;48.272;25.926;2023-08-17T02:53:40;8.80;;;6.50;;
26750;SDS011;14345;48.272;25.926;2023-08-17T02:56:06;10.50;;;6.88;;
26750;SDS011;14345;48.272;25.926;2023-08-17T02:58:36;10.70;;;6.80;;
26750;SDS011;14345;48.272;25.926;2023-08-17T03:01:05;9.85;;;7.10;;
26750;SDS011;14345;48.272;25.926;2023-08-17T03:03:31;10.25;;;8.27;;
26750;SDS011;14345;48.272;25.926;2023-08-17T03:05:57;13.93;;;10.55;;
26750;SDS011;14345;48.272;25.926;2023-08-17T03:08:23;15.68;;;10.80;;
26750;SDS011;14345;48.272;25.926;2023-08-17T03:10:49;14.10;;;10.00;;
26750;SDS011;14345;48.272;25.926;2023-08-17T03:13:15;12.13;;;9.15;;
26750;SDS011;14345;48.272;25.926;2023-08-17T03:15:41;10.23;;;7.75;;
26750;SDS011;14345;48.272;25.926;2023-08-17T03:18:07;8.98;;;7.72;;
26750;SDS011;14345;48.272;25.926;2023-08-17T03:20:33;8.82;;;7.30;;
26750;SDS011;14345;48.272;25.926;2023-08-17T03:22:59;9.93;;;7.40;;
26750;SDS011;14345;48.272;25.926;2023-08-17T03:25:25;11.20;;;7.90;;
26750;SDS011;14345;48.272;25.926;2023-08-17T03:27:51;10.65;;;7.50;;
26750;SDS011;14345;48.272;25.926;2023-08-17T03:30:17;10.65;;;8.10;;
26750;SDS011;14345;48.272;25.926;2023-08-17T03:32:43;12.63;;;9.07;;
26750;SDS011;14345;48.272;25.926;2023-08-17T03:35:09;13.85;;;9.40;;
26750;SDS011;14345;48.272;25.926;2023-08-17T03:37:35;14.00;;;8.95;;
26750;SDS011;14345;48.272;25.926;2023-08-17T03:40:01;10.98;;;8.25;;
26750;SDS011;14345;48.272;25.926;2023-08-17T03:42:27;9.73;;;8.05;;
26750;SDS011;14345;48.272;25.926;2023-08-17T03:44:53;11.27;;;7.82;;
26750;SDS011;14345;48.272;25.926;2023-08-17T03:47:19;14.15;;;7.95;;
26750;SDS011;14345;48.272;25.926;2023-08-17T03:49:45;10.40;;;7.55;;
26750;SDS011;14345;48.272;25.926;2023-08-17T03:52:12;11.82;;;7.88;;
26750;SDS011;14345;48.272;25.926;2023-08-17T03:54:38;10.57;;;7.15;;
26750;SDS011;14345;48.272;25.926;2023-08-17T03:57:04;9.48;;;7.25;;
26750;SDS011;14345;48.272;25.926;2023-08-17T03:59:30;11.82;;;8.27;;
26750;SDS011;14345;48.272;25.926;2023-08-17T04:01:56;11.25;;;7.95;;
26750;SDS011;14345;48.272;25.926;2023-08-17T04:04:22;11.07;;;7.35;;
26750;SDS011;14345;48.272;25.926;2023-08-17T04:06:48;8.63;;;6.78;;
26750;SDS011;14345;48.272;25.926;2023-08-17T04:09:14;9.20;;;6.93;;
26750;SDS011;14345;48.272;25.926;2023-08-17T04:11:40;10.75;;;7.47;;
26750;SDS011;14345;48.272;25.926;2023-08-17T04:14:06;10.20;;;7.18;;
26750;SDS011;14345;48.272;25.926;2023-08-17T04:16:34;10.88;;;7.38;;
26750;SDS011;14345;48.272;25.926;2023-08-17T04:19:00;11.45;;;7.13;;
26750;SDS011;14345;48.272;25.926;2023-08-17T04:21:26;10.60;;;7.43;;
26750;SDS011;14345;48.272;25.926;2023-08-17T04:23:52;9.40;;;6.88;;
26750;SDS011;14345;48.272;25.926;2023-08-17T04:26:18;11.65;;;6.97;;
26750;SDS011;14345;48.272;25.926;2023-08-17T04:28:44;10.65;;;6.47;;
26750;SDS011;14345;48.272;25.926;2023-08-17T04:31:10;7.88;;;6.07;;
26750;SDS011;14345;48.272;25.926;2023-08-17T04:33:36;10.20;;;6.70;;
26750;SDS011;14345;48.272;25.926;2023-08-17T04:36:02;8.82;;;6.10;;
26750;SDS011;14345;48.272;25.926;2023-08-17T04:38:28;10.38;;;5.75;;
26750;SDS011;14345;48.272;25.926;2023-08-17T04:40:54;8.13;;;6.32;;
26750;SDS011;14345;48.272;25.926;2023-08-17T04:43:20;11.05;;;6.47;;
26750;SDS011;14345;48.272;25.926;2023-08-17T04:45:46;8.57;;;6.45;;
26750;SDS011;14345;48.272;25.926;2023-08-17T04:48:12;9.82;;;6.80;;
26750;SDS011;14345;48.272;25.926;2023-08-17T04:50:39;11.18;;;6.47;;
26750;SDS011;14345;48.272;25.926;2023-08-17T04:53:05;7.85;;;6.15;;
26750;SDS011;14345;48.272;25.926;2023-08-17T04:55:31;8.38;;;6.57;;
26750;SDS011;14345;48.272;25.926;2023-08-17T04:57:57;8.50;;;6.10;;
26750;SDS011;14345;48.272;25.926;2023-08-17T05:00:23;6.55;;;5.55;;
26750;SDS011;14345;48.272;25.926;2023-08-17T05:02:53;7.53;;;5.50;;
26750;SDS011;14345;48.272;25.926;2023-08-17T05:05:19;9.88;;;6.13;;
26750;SDS011;14345;48.272;25.926;2023-08-17T05:07:46;8.50;;;6.57;;
26750;SDS011;14345;48.272;25.926;2023-08-17T05:10:12;7.80;;;6.15;;
26750;SDS011;14345;48.272;25.926;2023-08-17T05:12:38;10.10;;;6.63;;
26750;SDS011;14345;48.272;25.926;2023-08-17T05:15:04;15.60;;;8.32;;
26750;SDS011;14345;48.272;25.926;2023-08-17T05:17:30;14.15;;;7.13;;
26750;SDS011;14345;48.272;25.926;2023-08-17T05:19:56;10.52;;;6.63;;
26750;SDS011;14345;48.272;25.926;2023-08-17T05:22:22;9.75;;;7.50;;
26750;SDS011;14345;48.272;25.926;2023-08-17T05:24:48;11.23;;;7.35;;
26750;SDS011;14345;48.272;25.926;2023-08-17T05:27:14;10.75;;;8.30;;
26750;SDS011;14345;48.272;25.926;2023-08-17T05:29:40;9.93;;;6.45;;
26750;SDS011;14345;48.272;25.926;2023-08-17T05:32:06;8.10;;;6.10;;
26750;SDS011;14345;48.272;25.926;2023-08-17T05:34:32;7.63;;;5.78;;
26750;SDS011;14345;48.272;25.926;2023-08-17T05:36:58;13.45;;;6.40;;
26750;SDS011;14345;48.272;25.926;2023-08-17T05:39:24;8.48;;;6.20;;
26750;SDS011;14345;48.272;25.926;2023-08-17T05:41:50;12.60;;;7.15;;
26750;SDS011;14345;48.272;25.926;2023-08-17T05:44:16;12.98;;;8.05;;
26750;SDS011;14345;48.272;25.926;2023-08-17T05:46:42;13.40;;;7.60;;
26750;SDS011;14345;48.272;25.926;2023-08-17T05:49:08;12.70;;;7.00;;
26750;SDS011;14345;48.272;25.926;2023-08-17T05:51:34;8.85;;;6.72;;
26750;SDS011;14345;48.272;25.926;2023-08-17T05:54:00;13.15;;;7.75;;
26750;SDS011;14345;48.272;25.926;2023-08-17T05:56:26;11.25;;;8.32;;
26750;SDS011;14345;48.272;25.926;2023-08-17T05:58:53;12.90;;;10.57;;
26750;SDS011;14345;48.272;25.926;2023-08-17T06:01:19;10.50;;;8.07;;
26750;SDS011;14345;48.272;25.926;2023-08-17T06:03:45;14.68;;;7.50;;
26750;SDS011;14345;48.272;25.926;2023-08-17T06:06:11;10.40;;;8.55;;
26750;SDS011;14345;48.272;25.926;2023-08-17T06:08:37;10.68;;;7.95;;
26750;SDS011;14345;48.272;25.926;2023-08-17T06:11:03;16.38;;;7.15;;
26750;SDS011;14345;48.272;25.926;2023-08-17T06:13:29;8.48;;;6.38;;
26750;SDS011;14345;48.272;25.926;2023-08-17T06:15:56;8.68;;;6.38;;
26750;SDS011;14345;48.272;25.926;2023-08-17T06:18:22;10.52;;;5.63;;
26750;SDS011;14345;48.272;25.926;2023-08-17T06:20:48;7.65;;;5.97;;
26750;SDS011;14345;48.272;25.926;2023-08-17T06:23:17;7.85;;;5.57;;
26750;SDS011;14345;48.272;25.926;2023-08-17T06:25:43;9.60;;;6.60;;
26750;SDS011;14345;48.272;25.926;2023-08-17T06:28:08;8.23;;;6.47;;
26750;SDS011;14345;48.272;25.926;2023-08-17T06:30:34;12.60;;;6.35;;
26750;SDS011;14345;48.272;25.926;2023-08-17T06:33:00;8.80;;;6.25;;
26750;SDS011;14345;48.272;25.926;2023-08-17T06:35:27;9.10;;;6.78;;
26750;SDS011;14345;48.272;25.926;2023-08-17T06:37:53;7.45;;;5.85;;
26750;SDS011;14345;48.272;25.926;2023-08-17T06:40:22;12.00;;;5.93;;
26750;SDS011;14345;48.272;25.926;2023-08-17T06:42:48;9.73;;;6.30;;
26750;SDS011;14345;48.272;25.926;2023-08-17T06:45:14;8.13;;;5.95;;
26750;SDS011;14345;48.272;25.926;2023-08-17T06:47:43;9.20;;;7.22;;
26750;SDS011;14345;48.272;25.926;2023-08-17T06:50:10;14.02;;;7.82;;
26750;SDS011;14345;48.272;25.926;2023-08-17T06:52:36;9.32;;;6.90;;
26750;SDS011;14345;48.272;25.926;2023-08-17T06:55:02;11.18;;;8.20;;
26750;SDS011;14345;48.272;25.926;2023-08-17T06:57:28;12.18;;;8.77;;
26750;SDS011;14345;48.272;25.926;2023-08-17T06:59:54;12.40;;;8.85;;
26750;SDS011;14345;48.272;25.926;2023-08-17T07:02:20;12.80;;;8.68;;
26750;SDS011;14345;48.272;25.926;2023-08-17T07:04:46;11.70;;;9.32;;
26750;SDS011;14345;48.272;25.926;2023-08-17T07:07:12;12.00;;;8.05;;
26750;SDS011;14345;48.272;25.926;2023-08-17T07:09:39;11.00;;;7.95;;
26750;SDS011;14345;48.272;25.926;2023-08-17T07:12:05;12.23;;;8.52;;
26750;SDS011;14345;48.272;25.926;2023-08-17T07:14:31;11.57;;;8.15;;
26750;SDS011;14345;48.272;25.926;2023-08-17T07:16:58;21.45;;;9.18;;
26750;SDS011;14345;48.272;25.926;2023-08-17T07:19:24;11.90;;;8.30;;
26750;SDS011;14345;48.272;25.926;2023-08-17T07:21:50;9.40;;;7.35;;
26750;SDS011;14345;48.272;25.926;2023-08-17T07:24:16;9.80;;;8.05;;
26750;SDS011;14345;48.272;25.926;2023-08-17T07:26:43;11.02;;;8.40;;
26750;SDS011;14345;48.272;25.926;2023-08-17T07:29:09;10.77;;;8.15;;
26750;SDS011;14345;48.272;25.926;2023-08-17T07:31:36;12.65;;;8.23;;
26750;SDS011;14345;48.272;25.926;2023-08-17T07:34:03;16.38;;;8.40;;
26750;SDS011;14345;48.272;25.926;2023-08-17T07:36:29;10.80;;;7.50;;
26750;SDS011;14345;48.272;25.926;2023-08-17T07:38:55;9.55;;;7.80;;
26750;SDS011;14345;48.272;25.926;2023-08-17T07:41:21;9.13;;;8.15;;
26750;SDS011;14345;48.272;25.926;2023-08-17T07:43:47;9.13;;;7.03;;
26750;SDS011;14345;48.272;25.926;2023-08-17T07:46:13;11.20;;;8.25;;
26750;SDS011;14345;48.272;25.926;2023-08-17T07:48:39;13.93;;;8.75;;
26750;SDS011;14345;48.272;25.926;2023-08-17T07:51:05;10.93;;;9.30;;
26750;SDS011;14345;48.272;25.926;2023-08-17T07:53:31;18.77;;;10.30;;
26750;SDS011;14345;48.272;25.926;2023-08-17T07:55:57;12.85;;;9.57;;
26750;SDS011;14345;48.272;25.926;2023-08-17T07:58:23;12.40;;;9.40;;
26750;SDS011;14345;48.272;25.926;2023-08-17T08:00:49;12.10;;;9.90;;
26750;SDS011;14345;48.272;25.926;2023-08-17T08:03:15;12.05;;;8.82;;
26750;SDS011;14345;48.272;25.926;2023-08-17T08:05:41;17.83;;;11.40;;
26750;SDS011;14345;48.272;25.926;2023-08-17T08:08:07;13.27;;;10.23;;
26750;SDS011;14345;48.272;25.926;2023-08-17T08:10:33;14.30;;;11.15;;
26750;SDS011;14345;48.272;25.926;2023-08-17T08:12:59;11.95;;;10.20;;
26750;SDS011;14345;48.272;25.926;2023-08-17T08:15:25;13.77;;;11.25;;
26750;SDS011;14345;48.272;25.926;2023-08-17T08:17:51;15.95;;;10.73;;
26750;SDS011;14345;48.272;25.926;2023-08-17T08:20:17;16.00;;;11.30;;
26750;SDS011;14345;48.272;25.926;2023-08-17T08:22:43;14.23;;;10.68;;
26750;SDS011;14345;48.272;25.926;2023-08-17T08:25:09;11.25;;;9.90;;
26750;SDS011;14345;48.272;25.926;2023-08-17T08:27:35;11.88;;;9.85;;
26750;SDS011;14345;48.272;25.926;2023-08-17T08:30:01;14.63;;;11.10;;
26750;SDS011;14345;48.272;25.926;2023-08-17T08:32:27;14.45;;;10.52;;
26750;SDS011;14345;48.272;25.926;2023-08-17T08:34:53;13.55;;;10.38;;
26750;SDS011;14345;48.272;25.926;2023-08-17T08:37:19;13.00;;;8.85;;
26750;SDS011;14345;48.272;25.926;2023-08-17T08:39:49;11.55;;;9.02;;
26750;SDS011;14345;48.272;25.926;2023-08-17T08:42:19;12.80;;;9.17;;
26750;SDS011;14345;48.272;25.926;2023-08-17T08:44:45;13.50;;;9.68;;
26750;SDS011;14345;48.272;25.926;2023-08-17T08:47:11;12.63;;;8.43;;
26750;SDS011;14345;48.272;25.926;2023-08-17T08:49:43;14.88;;;10.13;;
26750;SDS011;14345;48.272;25.926;2023-08-17T08:52:16;11.85;;;9.60;;
26750;SDS011;14345;48.272;25.926;2023-08-17T08:54:45;13.68;;;9.05;;
26750;SDS011;14345;48.272;25.926;2023-08-17T08:57:15;13.60;;;9.35;;
26750;SDS011;14345;48.272;25.926;2023-08-17T08:59:41;13.68;;;9.68;;
26750;SDS011;14345;48.272;25.926;2023-08-17T09:02:14;14.73;;;9.38;;
26750;SDS011;14345;48.272;25.926;2023-08-17T09:04:43;11.18;;;9.15;;
26750;SDS011;14345;48.272;25.926;2023-08-17T09:07:10;9.43;;;8.40;;
26750;SDS011;14345;48.272;25.926;2023-08-17T09:09:37;12.70;;;8.45;;
26750;SDS011;14345;48.272;25.926;2023-08-17T09:12:04;9.57;;;7.30;;
26750;SDS011;14345;48.272;25.926;2023-08-17T09:14:33;10.85;;;7.30;;
26750;SDS011;14345;48.272;25.926;2023-08-17T09:16:59;13.80;;;7.28;;
26750;SDS011;14345;48.272;25.926;2023-08-17T09:19:25;12.13;;;8.50;;
26750;SDS011;14345;48.272;25.926;2023-08-17T09:21:51;11.48;;;9.40;;
26750;SDS011;14345;48.272;25.926;2023-08-17T09:24:17;9.23;;;8.30;;
26750;SDS011;14345;48.272;25.926;2023-08-17T09:26:43;8.30;;;6.82;;
26750;SDS011;14345;48.272;25.926;2023-08-17T09:29:19;11.18;;;7.50;;
26750;SDS011;14345;48.272;25.926;2023-08-17T09:31:45;9.23;;;7.47;;
26750;SDS011;14345;48.272;25.926;2023-08-17T09:34:11;8.52;;;7.53;;
26750;SDS011;14345;48.272;25.926;2023-08-17T09:36:38;8.75;;;6.90;;
26750;SDS011;14345;48.272;25.926;2023-08-17T09:39:05;8.30;;;7.00;;
26750;SDS011;14345;48.272;25.926;2023-08-17T09:41:37;7.60;;;6.63;;
26750;SDS011;14345;48.272;25.926;2023-08-17T09:44:04;8.77;;;7.00;;
26750;SDS011;14345;48.272;25.926;2023-08-17T09:46:31;12.63;;;8.48;;
26750;SDS011;14345;48.272;25.926;2023-08-17T09:48:57;11.20;;;7.60;;
26750;SDS011;14345;48.272;25.926;2023-08-17T09:51:23;9.77;;;8.77;;
26750;SDS011;14345;48.272;25.926;2023-08-17T09:53:53;13.02;;;9.75;;
26750;SDS011;14345;48.272;25.926;2023-08-17T09:56:21;11.07;;;8.43;;
26750;SDS011;14345;48.272;25.926;2023-08-17T09:58:47;14.80;;;7.82;;
26750;SDS011;14345;48.272;25.926;2023-08-17T10:01:13;10.50;;;9.25;;
26750;SDS011;14345;48.272;25.926;2023-08-17T10:03:42;11.60;;;7.03;;
26750;SDS011;14345;48.272;25.926;2023-08-17T10:06:11;12.23;;;6.30;;
26750;SDS011;14345;48.272;25.926;2023-08-17T10:08:47;8.40;;;6.60;;
26750;SDS011;14345;48.272;25.926;2023-08-17T10:11:15;11.27;;;7.13;;
26750;SDS011;14345;48.272;25.926;2023-08-17T10:13:51;8.73;;;7.32;;
26750;SDS011;14345;48.272;25.926;2023-08-17T10:23:57;9.23;;;6.68;;
26750;SDS011;14345;48.272;25.926;2023-08-17T10:26:24;7.72;;;6.40;;
26750;SDS011;14345;48.272;25.926;2023-08-17T10:28:51;7.18;;;6.45;;
26750;SDS011;14345;48.272;25.926;2023-08-17T10:31:19;6.47;;;5.70;;
26750;SDS011;14345;48.272;25.926;2023-08-17T10:33:45;7.13;;;5.95;;
26750;SDS011;14345;48.272;25.926;2023-08-17T10:36:12;9.18;;;5.97;;
26750;SDS011;14345;48.272;25.926;2023-08-17T10:38:39;8.38;;;5.32;;
26750;SDS011;14345;48.272;25.926;2023-08-17T10:41:09;8.25;;;5.63;;
26750;SDS011;14345;48.272;25.926;2023-08-17T10:43:52;9.88;;;6.38;;
26750;SDS011;14345;48.272;25.926;2023-08-17T10:46:18;10.47;;;6.17;;
26750;SDS011;14345;48.272;25.926;2023-08-17T10:48:44;7.68;;;5.55;;
26750;SDS011;14345;48.272;25.926;2023-08-17T10:51:10;7.05;;;5.53;;
26750;SDS011;14345;48.272;25.926;2023-08-17T10:53:42;9.73;;;5.60;;
26750;SDS011;14345;48.272;25.926;2023-08-17T10:56:12;6.95;;;5.53;;
26750;SDS011;14345;48.272;25.926;2023-08-17T10:58:39;7.40;;;5.18;;
26750;SDS011;14345;48.272;25.926;2023-08-17T11:01:06;9.32;;;5.25;;
26750;SDS011;14345;48.272;25.926;2023-08-17T11:03:32;8.65;;;5.85;;
26750;SDS011;14345;48.272;25.926;2023-08-17T11:05:58;8.70;;;6.32;;
26750;SDS011;14345;48.272;25.926;2023-08-17T11:08:39;12.52;;;5.93;;
26750;SDS011;14345;48.272;25.926;2023-08-17T11:11:12;7.10;;;5.45;;
26750;SDS011;14345;48.272;25.926;2023-08-17T11:13:44;6.50;;;4.93;;
26750;SDS011;14345;48.272;25.926;2023-08-17T11:16:11;7.60;;;5.72;;
26750;SDS011;14345;48.272;25.926;2023-08-17T11:18:37;9.35;;;6.70;;
26750;SDS011;14345;48.272;25.926;2023-08-17T11:21:04;10.30;;;6.38;;
26750;SDS011;14345;48.272;25.926;2023-08-17T11:23:31;6.35;;;5.10;;
26750;SDS011;14345;48.272;25.926;2023-08-17T11:25:57;9.25;;;5.00;;
26750;SDS011;14345;48.272;25.926;2023-08-17T11:28:24;6.63;;;4.45;;
26750;SDS011;14345;48.272;25.926;2023-08-17T11:30:59;9.93;;;5.55;;
26750;SDS011;14345;48.272;25.926;2023-08-17T11:33:26;8.77;;;5.32;;
26750;SDS011;14345;48.272;25.926;2023-08-17T11:35:55;6.43;;;5.40;;
26750;SDS011;14345;48.272;25.926;2023-08-17T11:38:21;9.25;;;5.75;;
26750;SDS011;14345;48.272;25.926;2023-08-17T11:40:48;8.20;;;4.47;;
26750;SDS011;14345;48.272;25.926;2023-08-17T11:43:14;7.75;;;5.20;;
26750;SDS011;14345;48.272;25.926;2023-08-17T11:45:40;7.82;;;5.13;;
26750;SDS011;14345;48.272;25.926;2023-08-17T11:48:06;7.03;;;4.88;;
26750;SDS011;14345;48.272;25.926;2023-08-17T11:50:34;7.35;;;4.30;;
26750;SDS011;14345;48.272;25.926;2023-08-17T11:53:00;7.60;;;5.22;;
26750;SDS011;14345;48.272;25.926;2023-08-17T11:55:26;7.07;;;4.10;;
26750;SDS011;14345;48.272;25.926;2023-08-17T11:57:52;6.93;;;3.58;;
26750;SDS011;14345;48.272;25.926;2023-08-17T12:00:19;7.00;;;4.20;;
26750;SDS011;14345;48.272;25.926;2023-08-17T12:02:47;8.18;;;4.78;;
26750;SDS011;14345;48.272;25.926;2023-08-17T12:05:13;6.00;;;5.40;;
26750;SDS011;14345;48.272;25.926;2023-08-17T12:07:39;5.20;;;4.45;;
26750;SDS011;14345;48.272;25.926;2023-08-17T12:10:05;7.97;;;4.00;;
26750;SDS011;14345;48.272;25.926;2023-08-17T12:12:35;8.13;;;5.00;;
26750;SDS011;14345;48.272;25.926;2023-08-17T12:15:02;5.55;;;4.28;;
26750;SDS011;14345;48.272;25.926;2023-08-17T12:17:29;7.28;;;4.13;;
26750;SDS011;14345;48.272;25.926;2023-08-17T12:19:55;5.70;;;3.97;;
26750;SDS011;14345;48.272;25.926;2023-08-17T12:22:23;6.47;;;4.43;;
26750;SDS011;14345;48.272;25.926;2023-08-17T12:24:49;6.57;;;4.00;;
26750;SDS011;14345;48.272;25.926;2023-08-17T12:27:15;7.47;;;3.70;;
26750;SDS011;14345;48.272;25.926;2023-08-17T12:29:47;6.53;;;3.85;;
26750;SDS011;14345;48.272;25.926;2023-08-17T12:32:17;6.22;;;4.60;;
26750;SDS011;14345;48.272;25.926;2023-08-17T12:34:43;6.47;;;4.10;;
26750;SDS011;14345;48.272;25.926;2023-08-17T12:37:09;9.40;;;7.53;;
26750;SDS011;14345;48.272;25.926;2023-08-17T12:39:36;9.57;;;6.22;;
26750;SDS011;14345;48.272;25.926;2023-08-17T12:42:03;6.65;;;4.93;;
26750;SDS011;14345;48.272;25.926;2023-08-17T12:44:29;7.18;;;5.15;;
26750;SDS011;14345;48.272;25.926;2023-08-17T12:46:55;6.70;;;4.82;;
26750;SDS011;14345;48.272;25.926;2023-08-17T12:49:21;6.25;;;5.07;;
26750;SDS011;14345;48.272;25.926;2023-08-17T12:51:47;5.03;;;4.53;;
26750;SDS011;14345;48.272;25.926;2023-08-17T12:54:13;6.20;;;5.00;;
26750;SDS011;14345;48.272;25.926;2023-08-17T12:56:39;12.50;;;6.15;;
26750;SDS011;14345;48.272;25.926;2023-08-17T12:59:05;6.72;;;4.95;;
26750;SDS011;14345;48.272;25.926;2023-08-17T13:01:31;5.25;;;3.92;;
26750;SDS011;14345;48.272;25.926;2023-08-17T13:03:57;9.25;;;4.95;;
26750;SDS011;14345;48.272;25.926;2023-08-17T13:06:23;4.32;;;3.70;;
26750;SDS011;14345;48.272;25.926;2023-08-17T13:08:49;4.15;;;3.63;;
26750;SDS011;14345;48.272;25.926;2023-08-17T13:11:15;5.38;;;3.75;;
26750;SDS011;14345;48.272;25.926;2023-08-17T13:13:41;5.55;;;3.95;;
26750;SDS011;14345;48.272;25.926;2023-08-17T13:16:07;4.60;;;3.63;;
26750;SDS011;14345;48.272;25.926;2023-08-17T13:18:34;6.15;;;3.45;;
26750;SDS011;14345;48.272;25.926;2023-08-17T13:21:00;6.82;;;3.33;;
26750;SDS011;14345;48.272;25.926;2023-08-17T13:23:26;3.88;;;3.20;;
26750;SDS011;14345;48.272;25.926;2023-08-17T13:25:53;5.47;;;3.67;;
26750;SDS011;14345;48.272;25.926;2023-08-17T13:28:19;6.95;;;4.80;;
26750;SDS011;14345;48.272;25.926;2023-08-17T13:30:45;5.05;;;3.88;;
26750;SDS011;14345;48.272;25.926;2023-08-17T13:33:11;5.95;;;3.85;;
26750;SDS011;14345;48.272;25.926;2023-08-17T13:35:37;5.18;;;3.70;;
26750;SDS011;14345;48.272;25.926;2023-08-17T13:38:03;7.72;;;3.92;;
26750;SDS011;14345;48.272;25.926;2023-08-17T13:40:30;4.68;;;3.38;;
26750;SDS011;14345;48.272;25.926;2023-08-17T13:42:56;5.20;;;3.67;;
26750;SDS011;14345;48.272;25.926;2023-08-17T13:45:24;6.22;;;4.57;;
26750;SDS011;14345;48.272;25.926;2023-08-17T13:47:50;5.80;;;4.05;;
26750;SDS011;14345;48.272;25.926;2023-08-17T13:50:16;6.38;;;3.67;;
26750;SDS011;14345;48.272;25.926;2023-08-17T13:52:43;5.55;;;3.20;;
26750;SDS011;14345;48.272;25.926;2023-08-17T13:55:09;5.18;;;3.10;;
26750;SDS011;14345;48.272;25.926;2023-08-17T13:57:35;5.65;;;2.97;;
26750;SDS011;14345;48.272;25.926;2023-08-17T14:00:02;6.35;;;3.15;;
26750;SDS011;14345;48.272;25.926;2023-08-17T14:02:29;6.25;;;3.38;;
26750;SDS011;14345;48.272;25.926;2023-08-17T14:04:55;6.90;;;3.47;;
26750;SDS011;14345;48.272;25.926;2023-08-17T14:07:21;3.95;;;2.95;;
26750;SDS011;14345;48.272;25.926;2023-08-17T14:09:47;8.18;;;3.78;;
26750;SDS011;14345;48.272;25.926;2023-08-17T14:12:13;5.18;;;3.25;;
26750;SDS011;14345;48.272;25.926;2023-08-17T14:14:39;4.30;;;2.33;;
26750;SDS011;14345;48.272;25.926;2023-08-17T14:17:05;6.57;;;3.00;;
26750;SDS011;14345;48.272;25.926;2023-08-17T14:19:31;3.83;;;2.75;;
26750;SDS011;14345;48.272;25.926;2023-08-17T14:21:57;3.75;;;2.80;;
26750;SDS011;14345;48.272;25.926;2023-08-17T14:24:25;3.95;;;2.60;;
26750;SDS011;14345;48.272;25.926;2023-08-17T14:26:51;5.40;;;2.33;;
26750;SDS011;14345;48.272;25.926;2023-08-17T14:29:17;3.72;;;2.20;;
26750;SDS011;14345;48.272;25.926;2023-08-17T14:31:44;3.10;;;2.10;;
26750;SDS011;14345;48.272;25.926;2023-08-17T14:34:10;3.83;;;2.60;;
26750;SDS011;14345;48.272;25.926;2023-08-17T14:36:36;3.80;;;2.70;;